createdAt,value
2023-03-12T00:01:20.341Z,10.98
2023-03-12T00:03:48.407Z,10.60
2023-03-12T00:06:15.392Z,11.38
2023-03-12T00:08:42.889Z,11.55
2023-03-12T00:11:11.196Z,9.93
2023-03-12T00:13:38.119Z,10.82
2023-03-12T00:16:10.079Z,10.07
2023-03-12T00:18:37.127Z,11.20
2023-03-12T00:21:04.175Z,10.55
2023-03-12T00:23:30.774Z,11.65
2023-03-12T00:26:05.933Z,11.38
2023-03-12T00:28:33.086Z,11.20
2023-03-12T00:30:59.496Z,13.10
2023-03-12T00:33:27.123Z,12.80
2023-03-12T00:35:54.309Z,12.40
2023-03-12T00:38:21.021Z,12.27
2023-03-12T00:40:47.576Z,12.40
2023-03-12T00:43:14.417Z,12.00
2023-03-12T00:45:40.739Z,11.30
2023-03-12T00:48:07.060Z,11.82
2023-03-12T00:50:34.233Z,10.35
2023-03-12T00:53:00.577Z,10.50
2023-03-12T00:55:26.932Z,11.43
2023-03-12T00:57:53.249Z,10.80
2023-03-12T01:00:19.781Z,11.15
2023-03-12T01:02:46.084Z,11.18
2023-03-12T01:05:13.429Z,10.18
2023-03-12T01:07:40.034Z,9.77
2023-03-12T01:10:07.651Z,9.73
2023-03-12T01:12:34.104Z,10.05
2023-03-12T01:15:01.393Z,9.98
2023-03-12T01:17:27.715Z,9.82
2023-03-12T01:19:54.000Z,9.80
2023-03-12T01:22:20.316Z,9.27
2023-03-12T01:24:46.605Z,9.43
2023-03-12T01:27:12.969Z,10.18
2023-03-12T01:29:39.285Z,9.27
2023-03-12T01:32:06.094Z,10.05
2023-03-12T01:34:32.392Z,9.20
2023-03-12T01:36:58.984Z,8.95
2023-03-12T01:39:25.282Z,8.68
2023-03-12T01:41:51.750Z,8.35
2023-03-12T01:44:18.167Z,9.15
2023-03-12T01:46:45.129Z,9.27
2023-03-12T01:49:16.976Z,8.73
2023-03-12T01:51:52.302Z,9.63
2023-03-12T01:54:23.430Z,8.68
2023-03-12T01:56:50.616Z,9.20
2023-03-12T01:59:24.729Z,8.82
2023-03-12T02:01:51.300Z,7.30
2023-03-12T02:04:24.049Z,9.15
2023-03-12T02:07:02.902Z,8.20
2023-03-12T02:09:34.538Z,9.05
2023-03-12T02:12:01.092Z,8.57
2023-03-12T02:14:27.607Z,8.65
2023-03-12T02:16:55.395Z,8.43
2023-03-12T02:19:47.561Z,7.50
2023-03-12T02:22:15.454Z,8.88
2023-03-12T02:24:52.522Z,8.70
2023-03-12T02:27:21.104Z,8.18
2023-03-12T02:29:47.550Z,7.85
2023-03-12T02:32:26.028Z,7.93
2023-03-12T02:34:52.381Z,8.27
2023-03-12T02:37:19.682Z,8.65
2023-03-12T02:39:59.999Z,7.82
2023-03-12T02:42:26.635Z,8.80
2023-03-12T02:44:53.849Z,8.38
2023-03-12T02:47:20.184Z,8.82
2023-03-12T02:49:46.474Z,8.65
2023-03-12T02:52:12.834Z,8.30
2023-03-12T02:54:39.147Z,8.07
2023-03-12T02:57:05.462Z,8.02
2023-03-12T02:59:31.794Z,8.32
2023-03-12T03:01:59.656Z,8.88
2023-03-12T03:04:28.673Z,8.13
2023-03-12T03:06:55.294Z,8.43
2023-03-12T03:09:21.888Z,8.05
2023-03-12T03:11:49.384Z,7.95
2023-03-12T03:14:15.828Z,8.02
2023-03-12T03:16:42.159Z,8.30
2023-03-12T03:19:08.515Z,8.45
2023-03-12T03:21:34.840Z,7.32
2023-03-12T03:24:01.221Z,7.78
2023-03-12T03:26:27.657Z,8.48
2023-03-12T03:28:54.066Z,7.75
2023-03-12T03:31:21.001Z,7.45
2023-03-12T03:33:48.196Z,7.03
2023-03-12T03:36:15.099Z,7.60
2023-03-12T03:38:42.405Z,7.53
2023-03-12T03:41:08.726Z,7.60
2023-03-12T03:43:35.018Z,7.22
2023-03-12T03:46:05.742Z,7.25
2023-03-12T03:48:32.880Z,7.07
2023-03-12T03:51:04.587Z,6.80
2023-03-12T03:53:31.417Z,7.13
2023-03-12T03:55:57.887Z,6.82
2023-03-12T03:58:24.494Z,7.22
2023-03-12T04:00:50.873Z,6.95
2023-03-12T04:03:17.393Z,7.57
2023-03-12T04:05:43.759Z,7.18
2023-03-12T04:08:10.200Z,7.32
2023-03-12T04:10:37.153Z,7.20
2023-03-12T04:13:03.523Z,6.20
2023-03-12T04:15:29.838Z,6.75
2023-03-12T04:17:56.227Z,7.30
2023-03-12T04:20:22.576Z,7.22
2023-03-12T04:22:48.930Z,6.50
2023-03-12T04:25:15.242Z,7.30
2023-03-12T04:27:41.547Z,6.60
2023-03-12T04:30:08.717Z,7.13
2023-03-12T04:32:35.110Z,5.95
2023-03-12T04:35:01.456Z,6.25
2023-03-12T04:37:27.773Z,6.53
2023-03-12T04:39:54.077Z,7.03
2023-03-12T04:42:20.387Z,6.78
2023-03-12T04:44:46.713Z,6.30
2023-03-12T04:47:13.048Z,5.93
2023-03-12T04:49:39.365Z,6.13
2023-03-12T04:52:06.092Z,6.30
2023-03-12T04:54:32.501Z,6.90
2023-03-12T04:56:58.834Z,6.75
2023-03-12T04:59:25.187Z,6.35
2023-03-12T05:01:51.538Z,6.65
2023-03-12T05:04:17.856Z,6.07
2023-03-12T05:06:44.169Z,6.43
2023-03-12T05:09:10.467Z,5.90
2023-03-12T05:11:39.199Z,5.32
2023-03-12T05:14:06.069Z,6.05
2023-03-12T05:16:32.677Z,6.05
2023-03-12T05:18:59.020Z,6.38
2023-03-12T05:21:25.381Z,5.53
2023-03-12T05:23:51.784Z,5.72
2023-03-12T05:26:19.861Z,6.28
2023-03-12T05:28:46.674Z,5.20
2023-03-12T05:31:14.289Z,5.93
2023-03-12T05:33:41.297Z,5.80
2023-03-12T05:36:08.628Z,5.82
2023-03-12T05:38:35.195Z,5.47
2023-03-12T05:41:01.706Z,5.15
2023-03-12T05:43:28.478Z,5.40
2023-03-12T05:45:59.436Z,5.63
2023-03-12T05:48:26.258Z,5.85
2023-03-12T05:50:52.565Z,5.35
2023-03-12T05:53:18.917Z,5.55
2023-03-12T05:55:45.219Z,5.40
2023-03-12T05:58:11.602Z,6.57
2023-03-12T06:00:37.965Z,6.00
2023-03-12T06:03:05.667Z,6.20
2023-03-12T06:05:33.486Z,6.30
2023-03-12T06:08:00.198Z,6.13
2023-03-12T06:10:27.368Z,6.50
2023-03-12T06:12:54.084Z,6.97
2023-03-12T06:15:20.543Z,6.57
2023-03-12T06:17:46.874Z,6.72
2023-03-12T06:20:13.323Z,6.38
2023-03-12T06:22:39.652Z,6.90
2023-03-12T06:25:06.573Z,7.30
2023-03-12T06:27:33.133Z,7.82
2023-03-12T06:29:59.436Z,7.93
2023-03-12T06:32:25.986Z,8.48
2023-03-12T06:34:52.343Z,7.50
2023-03-12T06:37:18.671Z,7.28
2023-03-12T06:39:44.964Z,8.05
2023-03-12T06:42:11.295Z,7.70
2023-03-12T06:44:37.586Z,7.53
2023-03-12T06:47:04.088Z,7.70
2023-03-12T06:49:30.406Z,7.30
2023-03-12T06:51:56.721Z,7.47
2023-03-12T06:54:23.031Z,6.82
2023-03-12T06:56:49.370Z,7.15
2023-03-12T06:59:15.869Z,7.13
2023-03-12T07:01:42.174Z,6.63
2023-03-12T07:04:08.509Z,6.30
2023-03-12T07:06:34.843Z,6.13
2023-03-12T07:09:13.058Z,6.97
2023-03-12T07:11:39.375Z,5.93
2023-03-12T07:14:05.683Z,5.70
2023-03-12T07:16:32.072Z,6.25
2023-03-12T07:18:58.433Z,5.70
2023-03-12T07:21:24.732Z,5.65
2023-03-12T07:23:51.934Z,5.60
2023-03-12T07:26:19.328Z,5.40
2023-03-12T07:28:45.999Z,5.55
2023-03-12T07:31:12.566Z,5.28
2023-03-12T07:33:39.149Z,4.95
2023-03-12T07:36:06.071Z,5.07
2023-03-12T07:38:32.453Z,5.00
2023-03-12T07:40:59.277Z,4.85
2023-03-12T07:43:25.969Z,4.75
2023-03-12T07:45:52.600Z,4.07
2023-03-12T07:48:18.987Z,4.97
2023-03-12T07:50:46.088Z,5.03
2023-03-12T07:53:12.471Z,4.93
2023-03-12T07:55:38.983Z,5.05
2023-03-12T07:58:05.374Z,4.97
2023-03-12T08:00:32.228Z,4.80
2023-03-12T08:02:58.754Z,4.85
2023-03-12T08:05:25.210Z,4.10
2023-03-12T08:07:52.514Z,4.35
2023-03-12T08:10:20.245Z,4.28
2023-03-12T08:12:46.699Z,4.55
2023-03-12T08:15:13.341Z,4.13
2023-03-12T08:17:39.936Z,3.92
2023-03-12T08:20:07.034Z,3.92
2023-03-12T08:22:33.326Z,3.65
2023-03-12T08:24:59.652Z,4.38
2023-03-12T08:27:26.148Z,3.83
2023-03-12T08:29:52.503Z,4.10
2023-03-12T08:32:18.961Z,3.92
2023-03-12T08:34:45.580Z,3.88
2023-03-12T08:37:11.916Z,4.10
2023-03-12T08:39:38.357Z,3.55
2023-03-12T08:42:04.937Z,4.55
2023-03-12T08:44:31.269Z,3.63
2023-03-12T08:46:57.585Z,4.07
2023-03-12T08:49:23.950Z,3.90
2023-03-12T08:51:50.780Z,3.33
2023-03-12T08:54:18.224Z,3.70
2023-03-12T08:56:44.758Z,3.70
2023-03-12T08:59:12.146Z,3.60
2023-03-12T09:01:41.142Z,3.80
2023-03-12T09:04:08.924Z,3.70
2023-03-12T09:06:35.259Z,4.13
2023-03-12T09:09:02.596Z,4.30
2023-03-12T09:11:28.884Z,3.72
2023-03-12T09:14:28.040Z,3.63
2023-03-12T09:16:41.524Z,4.10
2023-03-12T09:19:07.914Z,3.70
2023-03-12T09:21:34.270Z,4.32
2023-03-12T09:24:00.623Z,3.72
2023-03-12T09:26:26.979Z,4.07
2023-03-12T09:28:53.286Z,4.15
2023-03-12T09:31:19.906Z,4.07
2023-03-12T09:33:46.343Z,3.92
2023-03-12T09:36:12.688Z,4.10
2023-03-12T09:38:39.037Z,4.57
2023-03-12T09:41:12.870Z,4.10
2023-03-12T09:43:42.818Z,4.93
2023-03-12T09:46:17.787Z,4.35
2023-03-12T09:48:47.647Z,5.00
2023-03-12T09:51:20.507Z,4.88
2023-03-12T09:53:51.878Z,4.85
2023-03-12T09:56:20.797Z,4.57
2023-03-12T09:58:48.423Z,5.05
2023-03-12T10:01:32.239Z,5.53
2023-03-12T10:04:16.593Z,5.25
2023-03-12T10:06:52.100Z,5.22
2023-03-12T10:09:57.330Z,5.22
2023-03-12T10:12:38.750Z,4.53
2023-03-12T10:15:15.057Z,4.10
2023-03-12T10:18:06.083Z,3.75
2023-03-12T10:20:49.547Z,3.65
2023-03-12T10:23:37.501Z,3.42
2023-03-12T10:26:13.457Z,3.15
2023-03-12T10:28:54.581Z,2.95
2023-03-12T10:31:27.757Z,3.88
2023-03-12T10:34:00.030Z,3.70
2023-03-12T10:36:38.164Z,4.30
2023-03-12T10:39:13.392Z,4.05
2023-03-12T10:41:43.402Z,4.10
2023-03-12T10:44:18.134Z,4.03
2023-03-12T10:47:18.616Z,4.72
2023-03-12T10:49:44.965Z,4.15
2023-03-12T10:52:21.786Z,5.40
2023-03-12T10:54:50.067Z,4.90
2023-03-12T10:57:17.004Z,5.22
2023-03-12T10:59:47.256Z,5.85
2023-03-12T11:02:37.303Z,5.60
2023-03-12T11:05:20.908Z,5.88
2023-03-12T11:07:47.409Z,6.30
2023-03-12T11:10:38.390Z,6.65
2023-03-12T11:13:20.763Z,7.50
2023-03-12T11:15:47.554Z,7.57
2023-03-12T11:18:36.668Z,11.48
2023-03-12T11:21:08.827Z,8.98
2023-03-12T11:23:46.848Z,7.40
2023-03-12T11:26:19.888Z,8.50
2023-03-12T11:28:52.395Z,8.80
2023-03-12T11:31:53.292Z,9.10
2023-03-12T11:34:27.813Z,8.70
2023-03-12T11:37:10.343Z,8.43
2023-03-12T11:40:15.428Z,9.73
2023-03-12T11:43:10.117Z,9.52
2023-03-12T11:45:50.577Z,10.23
2023-03-12T11:48:25.805Z,9.48
2023-03-12T11:50:58.156Z,9.85
2023-03-12T11:53:48.883Z,9.43
2023-03-12T11:56:26.932Z,9.40
2023-03-12T11:59:33.089Z,7.93
2023-03-12T12:02:31.040Z,7.30
2023-03-12T12:05:22.412Z,7.60
2023-03-12T12:08:32.763Z,7.45
2023-03-12T12:11:22.880Z,7.25
2023-03-12T12:13:55.626Z,7.97
2023-03-12T12:16:51.158Z,7.72
2023-03-12T12:22:01.459Z,7.78
2023-03-12T12:24:58.997Z,6.07
2023-03-12T12:27:49.114Z,8.05
2023-03-12T12:30:23.273Z,7.82
2023-03-12T12:33:15.743Z,8.02
2023-03-12T12:35:43.562Z,8.32
2023-03-12T12:38:28.922Z,8.95
2023-03-12T12:41:03.571Z,8.43
2023-03-12T12:43:33.843Z,8.52
2023-03-12T12:46:04.196Z,8.25
2023-03-12T12:48:36.438Z,8.77
2023-03-12T12:51:07.554Z,8.88
2023-03-12T12:53:52.304Z,9.10
2023-03-12T12:56:52.863Z,8.13
2023-03-12T12:59:38.173Z,8.57
2023-03-12T13:02:15.186Z,8.68
2023-03-12T13:04:42.657Z,8.38
2023-03-12T13:07:11.690Z,9.73
2023-03-12T13:09:49.906Z,9.10
2023-03-12T13:12:29.671Z,10.38
2023-03-12T13:14:58.133Z,10.25
2023-03-12T13:17:53.333Z,10.23
2023-03-12T13:20:21.244Z,11.00
2023-03-12T13:23:11.890Z,11.57
2023-03-12T13:26:00.136Z,11.35
2023-03-12T13:28:26.413Z,10.95
2023-03-12T13:30:53.928Z,11.30
2023-03-12T13:33:38.862Z,11.98
2023-03-12T13:36:17.232Z,13.20
2023-03-12T13:38:58.669Z,12.40
2023-03-12T13:41:41.684Z,13.45
2023-03-12T13:44:23.026Z,12.02
2023-03-12T13:47:11.050Z,13.25
2023-03-12T13:49:56.284Z,12.82
2023-03-12T13:55:00.995Z,13.48
2023-03-12T13:57:38.979Z,13.63
2023-03-12T14:00:15.182Z,14.13
2023-03-12T14:03:04.781Z,15.70
2023-03-12T14:05:42.880Z,15.65
2023-03-12T14:08:27.537Z,17.15
2023-03-12T14:11:03.102Z,17.60
2023-03-12T14:13:39.568Z,18.85
2023-03-12T14:16:17.465Z,20.15
2023-03-12T14:18:45.167Z,21.05
2023-03-12T14:21:15.846Z,21.75
2023-03-12T14:23:54.039Z,22.13
2023-03-12T14:26:24.803Z,23.35
2023-03-12T14:28:58.649Z,25.40
2023-03-12T14:31:25.824Z,24.52
2023-03-12T14:34:01.716Z,26.13
2023-03-12T14:36:37.219Z,26.10
2023-03-12T14:39:32.161Z,27.48
2023-03-12T14:42:00.617Z,28.27
2023-03-12T14:44:29.272Z,28.00
2023-03-12T14:46:59.489Z,28.65
2023-03-12T14:49:26.282Z,29.73
2023-03-12T14:51:53.500Z,31.38
2023-03-12T14:54:22.813Z,30.48
2023-03-12T14:56:49.913Z,31.23
2023-03-12T14:59:31.067Z,31.35
2023-03-12T15:02:18.574Z,31.05
2023-03-12T15:04:45.640Z,31.52
2023-03-12T15:07:15.205Z,30.90
2023-03-12T15:09:47.461Z,30.40
2023-03-12T15:12:23.402Z,31.30
2023-03-12T15:14:54.796Z,31.70
2023-03-12T15:17:24.011Z,31.23
2023-03-12T15:19:50.652Z,31.30
2023-03-12T15:22:20.944Z,31.17
2023-03-12T15:24:47.636Z,29.02
2023-03-12T15:27:21.556Z,31.60
2023-03-12T15:29:47.908Z,30.93
2023-03-12T15:32:16.144Z,29.38
2023-03-12T15:34:43.026Z,31.15
2023-03-12T15:37:25.004Z,30.88
2023-03-12T15:39:53.139Z,30.70
2023-03-12T15:42:23.686Z,30.85
2023-03-12T15:45:02.237Z,30.10
2023-03-12T15:47:31.683Z,32.90
2023-03-12T15:50:12.956Z,32.40
2023-03-12T15:52:39.301Z,34.92
2023-03-12T15:55:29.004Z,33.95
2023-03-12T15:57:57.008Z,36.08
2023-03-12T16:00:31.176Z,37.22
2023-03-12T16:02:58.939Z,37.95
2023-03-12T16:05:29.198Z,36.97
2023-03-12T16:07:55.635Z,37.60
2023-03-12T16:10:24.241Z,35.70
2023-03-12T16:12:57.881Z,36.80
2023-03-12T16:15:30.561Z,37.33
2023-03-12T16:17:57.002Z,38.85
2023-03-12T16:20:23.285Z,38.00
2023-03-12T16:22:49.589Z,37.85
2023-03-12T16:25:15.999Z,38.03
2023-03-12T16:27:49.666Z,38.30
2023-03-12T16:30:20.486Z,38.97
2023-03-12T16:32:47.035Z,38.60
2023-03-12T16:35:16.280Z,39.22
2023-03-12T16:37:43.278Z,37.40
2023-03-12T16:40:11.875Z,34.47
2023-03-12T16:42:49.317Z,38.10
2023-03-12T16:45:17.393Z,35.67
2023-03-12T16:47:44.950Z,35.50
2023-03-12T16:50:19.441Z,35.50
2023-03-12T16:52:46.366Z,37.42
2023-03-12T16:55:15.933Z,36.00
2023-03-12T16:57:47.164Z,35.58
2023-03-12T17:00:25.152Z,35.60
2023-03-12T17:02:53.173Z,34.47
2023-03-12T17:05:19.548Z,34.35
2023-03-12T17:07:46.235Z,32.80
2023-03-12T17:10:15.242Z,30.60
2023-03-12T17:12:42.385Z,30.75
2023-03-12T17:15:14.831Z,27.85
2023-03-12T17:17:41.330Z,27.35
2023-03-12T17:20:08.892Z,24.48
2023-03-12T17:22:35.297Z,22.73
2023-03-12T17:25:02.429Z,23.30
2023-03-12T17:27:29.010Z,23.70
2023-03-12T17:29:55.514Z,21.50
2023-03-12T17:32:21.883Z,21.25
2023-03-12T17:34:53.741Z,19.70
2023-03-12T17:37:20.066Z,19.60
2023-03-12T17:39:47.969Z,19.23
2023-03-12T17:42:14.407Z,19.02
2023-03-12T17:44:40.740Z,18.10
2023-03-12T17:47:07.174Z,19.05
2023-03-12T17:49:33.492Z,18.13
2023-03-12T17:52:02.450Z,17.50
2023-03-12T17:54:28.789Z,17.13
2023-03-12T17:56:55.097Z,18.30
2023-03-12T17:59:21.515Z,17.08
2023-03-12T18:01:47.811Z,15.70
2023-03-12T18:04:14.117Z,15.93
2023-03-12T18:06:40.436Z,16.58
2023-03-12T18:09:06.794Z,16.25
2023-03-12T18:11:33.110Z,16.85
2023-03-12T18:13:59.417Z,15.45
2023-03-12T18:16:25.895Z,16.52
2023-03-12T18:18:53.024Z,14.70
2023-03-12T18:21:19.734Z,14.45
2023-03-12T18:23:46.077Z,14.65
2023-03-12T18:26:12.453Z,14.85
2023-03-12T18:28:38.794Z,13.85
2023-03-12T18:31:05.158Z,14.23
2023-03-12T18:33:31.576Z,13.60
2023-03-12T18:35:57.935Z,12.55
2023-03-12T18:38:24.282Z,12.82
2023-03-12T18:40:50.573Z,12.13
2023-03-12T18:43:16.910Z,12.25
2023-03-12T18:45:43.349Z,12.80
2023-03-12T18:48:10.358Z,12.13
2023-03-12T18:50:36.692Z,11.20
2023-03-12T18:53:03.469Z,12.00
2023-03-12T18:55:30.834Z,12.65
2023-03-12T18:57:57.157Z,13.85
2023-03-12T19:00:23.522Z,13.73
2023-03-12T19:02:49.893Z,13.77
2023-03-12T19:05:16.467Z,15.57
2023-03-12T19:07:43.306Z,14.70
2023-03-12T19:10:10.733Z,15.75
2023-03-12T19:12:50.954Z,16.20
2023-03-12T19:15:19.017Z,15.82
2023-03-12T19:17:45.371Z,16.40
2023-03-12T19:20:12.447Z,17.13
2023-03-12T19:22:38.851Z,15.25
2023-03-12T19:25:05.677Z,17.10
2023-03-12T19:27:32.018Z,15.85
2023-03-12T19:29:58.448Z,15.55
2023-03-12T19:32:27.747Z,16.02
2023-03-12T19:34:59.494Z,17.10
2023-03-12T19:37:25.883Z,16.30
2023-03-12T19:39:52.248Z,15.43
2023-03-12T19:42:18.813Z,16.67
2023-03-12T19:44:45.210Z,16.83
2023-03-12T19:47:11.631Z,15.65
2023-03-12T19:49:38.037Z,16.73
2023-03-12T19:52:04.436Z,17.70
2023-03-12T19:54:30.760Z,18.25
2023-03-12T19:56:57.104Z,17.00
2023-03-12T19:59:23.489Z,17.17
2023-03-12T20:01:49.925Z,16.95
2023-03-12T20:04:16.509Z,15.65
2023-03-12T20:06:42.844Z,14.98
2023-03-12T20:09:09.158Z,14.23
2023-03-12T20:11:35.494Z,15.65
2023-03-12T20:14:03.280Z,13.23
2023-03-12T20:16:29.632Z,13.45
2023-03-12T20:18:56.087Z,11.82
2023-03-12T20:21:22.801Z,11.25
2023-03-12T20:23:49.209Z,12.45
2023-03-12T20:26:15.581Z,10.02
2023-03-12T20:28:42.024Z,10.45
2023-03-12T20:31:09.117Z,11.70
2023-03-12T20:33:35.501Z,11.15
2023-03-12T20:36:13.019Z,9.60
2023-03-12T20:38:39.752Z,8.68
2023-03-12T20:41:13.824Z,7.95
2023-03-12T20:43:44.154Z,9.10
2023-03-12T20:46:11.843Z,9.13
2023-03-12T20:48:38.682Z,7.50
2023-03-12T20:51:05.364Z,7.93
2023-03-12T20:53:31.657Z,7.80
2023-03-12T20:55:57.985Z,7.50
2023-03-12T20:58:24.346Z,7.28
2023-03-12T21:00:50.745Z,6.82
2023-03-12T21:03:17.134Z,7.82
2023-03-12T21:05:43.443Z,7.32
2023-03-12T21:08:09.734Z,7.65
2023-03-12T21:10:39.104Z,7.05
2023-03-12T21:13:05.808Z,7.03
2023-03-12T21:15:32.112Z,6.80
2023-03-12T21:17:58.402Z,6.15
2023-03-12T21:20:24.853Z,8.18
2023-03-12T21:22:51.149Z,7.53
2023-03-12T21:25:17.582Z,8.25
2023-03-12T21:27:50.512Z,6.50
2023-03-12T21:30:17.836Z,6.68
2023-03-12T21:32:44.295Z,6.72
2023-03-12T21:35:10.870Z,6.70
2023-03-12T21:37:37.206Z,6.43
2023-03-12T21:40:04.006Z,7.80
2023-03-12T21:42:33.155Z,7.88
2023-03-12T21:44:59.467Z,6.95
2023-03-12T21:47:25.784Z,6.68
2023-03-12T21:49:52.085Z,6.43
2023-03-12T21:52:18.433Z,7.53
2023-03-12T21:54:44.729Z,6.63
2023-03-12T21:57:11.082Z,7.15
2023-03-12T21:59:37.396Z,6.93
2023-03-12T22:02:03.892Z,6.15
2023-03-12T22:04:30.305Z,6.38
2023-03-12T22:06:56.771Z,5.53
2023-03-12T22:09:23.082Z,6.50
2023-03-12T22:11:49.435Z,5.70
2023-03-12T22:14:15.751Z,6.47
2023-03-12T22:16:42.068Z,6.88
2023-03-12T22:19:08.369Z,6.28
2023-03-12T22:21:34.704Z,6.22
2023-03-12T22:24:01.872Z,6.20
2023-03-12T22:26:28.383Z,5.85
2023-03-12T22:28:57.369Z,6.18
2023-03-12T22:31:26.163Z,5.32
2023-03-12T22:33:52.764Z,6.07
2023-03-12T22:36:19.941Z,6.57
2023-03-12T22:38:46.734Z,5.57
2023-03-12T22:41:15.946Z,6.40
2023-03-12T22:43:42.756Z,5.55
2023-03-12T22:46:09.097Z,5.35
2023-03-12T22:48:35.784Z,5.65
2023-03-12T22:51:03.723Z,6.35
2023-03-12T22:53:31.237Z,5.30
2023-03-12T22:55:59.384Z,5.95
2023-03-12T22:58:26.492Z,7.35
2023-03-12T23:01:05.219Z,6.15
2023-03-12T23:03:33.696Z,6.65
2023-03-12T23:06:01.084Z,6.45
2023-03-12T23:08:28.592Z,6.47
2023-03-12T23:11:03.440Z,5.97
2023-03-12T23:16:03.933Z,7.07
2023-03-12T23:18:30.473Z,7.00
2023-03-12T23:21:02.031Z,6.75
2023-03-12T23:23:28.977Z,7.13
2023-03-12T23:25:57.040Z,6.93
2023-03-12T23:28:24.098Z,6.80
2023-03-12T23:30:55.541Z,6.95
2023-03-12T23:33:21.913Z,6.10
2023-03-12T23:36:01.153Z,6.32
2023-03-12T23:38:28.927Z,7.00
2023-03-12T23:41:06.839Z,6.78
2023-03-12T23:43:33.929Z,6.53
2023-03-12T23:46:02.153Z,6.72
2023-03-12T23:48:30.327Z,6.60
2023-03-12T23:51:05.608Z,5.80
2023-03-12T23:53:32.476Z,6.65
2023-03-12T23:56:00.799Z,5.97
2023-03-12T23:58:28.271Z,5.38
